sensor_id;sensor_type;location;lat;lon;timestamp;temperature;humidity
6724;DHT22;3399;52.530;13.304;2023-01-01T00:00:54;15.90;99.90
6724;DHT22;3399;52.530;13.304;2023-01-01T00:03:20;15.90;99.90
6724;DHT22;3399;52.530;13.304;2023-01-01T00:05:45;15.90;99.90
6724;DHT22;3399;52.530;13.304;2023-01-01T00:08:10;15.80;99.90
6724;DHT22;3399;52.530;13.304;2023-01-01T00:10:36;15.80;99.90
6724;DHT22;3399;52.530;13.304;2023-01-01T00:13:01;15.80;99.90
6724;DHT22;3399;52.530;13.304;2023-01-01T00:15:27;15.80;99.90
6724;DHT22;3399;52.530;13.304;2023-01-01T00:17:53;15.90;99.90
6724;DHT22;3399;52.530;13.304;2023-01-01T00:20:19;15.90;99.90
6724;DHT22;3399;52.530;13.304;2023-01-01T00:22:44;15.80;99.90
6724;DHT22;3399;52.530;13.304;2023-01-01T00:25:10;15.90;99.90
6724;DHT22;3399;52.530;13.304;2023-01-01T00:27:38;15.90;99.90
6724;DHT22;3399;52.530;13.304;2023-01-01T00:30:04;15.90;99.90
6724;DHT22;3399;52.530;13.304;2023-01-01T00:32:29;16.00;99.90
6724;DHT22;3399;52.530;13.304;2023-01-01T00:34:54;15.90;99.90
6724;DHT22;3399;52.530;13.304;2023-01-01T00:37:20;15.90;99.90
6724;DHT22;3399;52.530;13.304;2023-01-01T00:42:03;15.90;99.90
6724;DHT22;3399;52.530;13.304;2023-01-01T00:44:28;16.00;99.90
6724;DHT22;3399;52.530;13.304;2023-01-01T00:46:54;16.00;99.90
6724;DHT22;3399;52.530;13.304;2023-01-01T00:49:19;15.90;99.90
6724;DHT22;3399;52.530;13.304;2023-01-01T00:51:45;15.90;99.90
6724;DHT22;3399;52.530;13.304;2023-01-01T00:54:10;15.80;99.90
6724;DHT22;3399;52.530;13.304;2023-01-01T00:56:35;15.90;99.90
6724;DHT22;3399;52.530;13.304;2023-01-01T00:59:01;15.90;99.90
6724;DHT22;3399;52.530;13.304;2023-01-01T01:01:26;16.00;99.90
6724;DHT22;3399;52.530;13.304;2023-01-01T01:03:52;16.00;99.90
6724;DHT22;3399;52.530;13.304;2023-01-01T01:06:17;16.00;99.90
6724;DHT22;3399;52.530;13.304;2023-01-01T01:08:44;16.00;99.90
6724;DHT22;3399;52.530;13.304;2023-01-01T01:13:38;16.00;99.90
6724;DHT22;3399;52.530;13.304;2023-01-01T01:16:46;16.00;99.90
6724;DHT22;3399;52.530;13.304;2023-01-01T01:18:53;16.00;99.90
6724;DHT22;3399;52.530;13.304;2023-01-01T01:21:20;15.90;99.90
6724;DHT22;3399;52.530;13.304;2023-01-01T01:23:46;15.90;99.90
6724;DHT22;3399;52.530;13.304;2023-01-01T01:26:13;15.90;99.90
6724;DHT22;3399;52.530;13.304;2023-01-01T01:28:39;15.90;99.90
6724;DHT22;3399;52.530;13.304;2023-01-01T01:31:05;15.90;99.90
6724;DHT22;3399;52.530;13.304;2023-01-01T01:33:30;15.90;99.90
6724;DHT22;3399;52.530;13.304;2023-01-01T01:35:56;15.90;99.90
6724;DHT22;3399;52.530;13.304;2023-01-01T01:38:21;15.90;99.90
6724;DHT22;3399;52.530;13.304;2023-01-01T01:40:47;15.80;99.90
6724;DHT22;3399;52.530;13.304;2023-01-01T01:43:22;15.80;99.90
6724;DHT22;3399;52.530;13.304;2023-01-01T01:45:49;15.80;99.90
6724;DHT22;3399;52.530;13.304;2023-01-01T01:48:17;15.80;99.90
6724;DHT22;3399;52.530;13.304;2023-01-01T01:50:42;15.80;99.90
6724;DHT22;3399;52.530;13.304;2023-01-01T01:53:11;15.80;99.90
6724;DHT22;3399;52.530;13.304;2023-01-01T01:55:44;15.80;99.90
6724;DHT22;3399;52.530;13.304;2023-01-01T01:58:11;15.80;99.90
6724;DHT22;3399;52.530;13.304;2023-01-01T02:00:37;15.80;99.90
6724;DHT22;3399;52.530;13.304;2023-01-01T02:03:05;15.80;99.90
6724;DHT22;3399;52.530;13.304;2023-01-01T02:05:32;15.80;99.80
6724;DHT22;3399;52.530;13.304;2023-01-01T02:07:58;15.80;99.80
6724;DHT22;3399;52.530;13.304;2023-01-01T02:10:24;15.80;99.70
6724;DHT22;3399;52.530;13.304;2023-01-01T02:12:50;15.80;99.80
6724;DHT22;3399;52.530;13.304;2023-01-01T02:15:15;15.80;99.60
6724;DHT22;3399;52.530;13.304;2023-01-01T02:20:33;15.90;99.50
6724;DHT22;3399;52.530;13.304;2023-01-01T02:23:08;15.90;99.50
6724;DHT22;3399;52.530;13.304;2023-01-01T02:28:08;15.90;99.30
6724;DHT22;3399;52.530;13.304;2023-01-01T02:30:37;15.90;99.30
6724;DHT22;3399;52.530;13.304;2023-01-01T02:33:05;15.90;99.30
6724;DHT22;3399;52.530;13.304;2023-01-01T02:35:34;15.80;99.30
6724;DHT22;3399;52.530;13.304;2023-01-01T02:40:28;15.70;99.40
6724;DHT22;3399;52.530;13.304;2023-01-01T02:42:54;15.70;99.30
6724;DHT22;3399;52.530;13.304;2023-01-01T02:45:20;15.70;99.20
6724;DHT22;3399;52.530;13.304;2023-01-01T02:47:45;15.80;99.10
6724;DHT22;3399;52.530;13.304;2023-01-01T02:50:12;15.80;99.20
6724;DHT22;3399;52.530;13.304;2023-01-01T02:52:48;15.70;99.10
6724;DHT22;3399;52.530;13.304;2023-01-01T02:55:36;15.70;99.00
6724;DHT22;3399;52.530;13.304;2023-01-01T03:01:00;15.70;99.10
6724;DHT22;3399;52.530;13.304;2023-01-01T03:03:32;15.60;99.20
6724;DHT22;3399;52.530;13.304;2023-01-01T03:06:04;15.60;99.40
6724;DHT22;3399;52.530;13.304;2023-01-01T03:11:46;15.60;99.70
6724;DHT22;3399;52.530;13.304;2023-01-01T03:14:15;15.70;99.60
6724;DHT22;3399;52.530;13.304;2023-01-01T03:19:15;15.70;99.50
6724;DHT22;3399;52.530;13.304;2023-01-01T03:21:52;15.70;99.50
6724;DHT22;3399;52.530;13.304;2023-01-01T03:24:30;15.60;99.60
6724;DHT22;3399;52.530;13.304;2023-01-01T03:26:57;15.70;99.50
6724;DHT22;3399;52.530;13.304;2023-01-01T03:29:24;15.70;99.50
6724;DHT22;3399;52.530;13.304;2023-01-01T03:31:51;15.70;99.60
6724;DHT22;3399;52.530;13.304;2023-01-01T03:34:20;15.70;99.60
6724;DHT22;3399;52.530;13.304;2023-01-01T03:36:47;15.70;99.60
6724;DHT22;3399;52.530;13.304;2023-01-01T03:39:18;15.70;99.60
6724;DHT22;3399;52.530;13.304;2023-01-01T03:41:46;15.70;99.60
6724;DHT22;3399;52.530;13.304;2023-01-01T03:44:16;15.60;99.50
6724;DHT22;3399;52.530;13.304;2023-01-01T03:46:43;15.60;99.60
6724;DHT22;3399;52.530;13.304;2023-01-01T03:49:09;15.60;99.60
6724;DHT22;3399;52.530;13.304;2023-01-01T03:59:56;15.60;99.40
6724;DHT22;3399;52.530;13.304;2023-01-01T04:02:26;15.60;99.50
6724;DHT22;3399;52.530;13.304;2023-01-01T04:04:52;15.60;99.50
6724;DHT22;3399;52.530;13.304;2023-01-01T04:07:18;15.50;99.60
6724;DHT22;3399;52.530;13.304;2023-01-01T04:09:49;15.50;99.70
6724;DHT22;3399;52.530;13.304;2023-01-01T04:12:19;15.40;99.60
6724;DHT22;3399;52.530;13.304;2023-01-01T04:14:45;15.40;99.60
6724;DHT22;3399;52.530;13.304;2023-01-01T04:17:10;15.40;99.80
6724;DHT22;3399;52.530;13.304;2023-01-01T04:19:36;15.50;99.70
6724;DHT22;3399;52.530;13.304;2023-01-01T04:22:02;15.50;99.60
6724;DHT22;3399;52.530;13.304;2023-01-01T04:24:27;15.50;99.60
6724;DHT22;3399;52.530;13.304;2023-01-01T04:26:53;15.50;99.40
6724;DHT22;3399;52.530;13.304;2023-01-01T04:29:18;15.50;99.20
6724;DHT22;3399;52.530;13.304;2023-01-01T04:31:44;15.50;99.30
6724;DHT22;3399;52.530;13.304;2023-01-01T04:34:10;15.50;99.30
6724;DHT22;3399;52.530;13.304;2023-01-01T04:36:36;15.50;99.40
6724;DHT22;3399;52.530;13.304;2023-01-01T04:39:02;15.40;99.50
6724;DHT22;3399;52.530;13.304;2023-01-01T04:41:27;15.40;99.40
6724;DHT22;3399;52.530;13.304;2023-01-01T04:43:53;15.40;99.40
6724;DHT22;3399;52.530;13.304;2023-01-01T04:46:19;15.40;99.40
6724;DHT22;3399;52.530;13.304;2023-01-01T04:48:44;15.40;99.40
6724;DHT22;3399;52.530;13.304;2023-01-01T04:51:11;15.40;99.50
6724;DHT22;3399;52.530;13.304;2023-01-01T04:53:37;15.30;99.50
6724;DHT22;3399;52.530;13.304;2023-01-01T04:56:03;15.30;99.50
6724;DHT22;3399;52.530;13.304;2023-01-01T04:58:29;15.30;99.50
6724;DHT22;3399;52.530;13.304;2023-01-01T05:00:55;15.30;99.40
6724;DHT22;3399;52.530;13.304;2023-01-01T05:03:20;15.30;99.50
6724;DHT22;3399;52.530;13.304;2023-01-01T05:05:46;15.30;99.50
6724;DHT22;3399;52.530;13.304;2023-01-01T05:08:12;15.30;99.50
6724;DHT22;3399;52.530;13.304;2023-01-01T05:10:38;15.20;99.50
6724;DHT22;3399;52.530;13.304;2023-01-01T05:13:07;15.20;99.70
6724;DHT22;3399;52.530;13.304;2023-01-01T05:15:34;15.20;99.60
6724;DHT22;3399;52.530;13.304;2023-01-01T05:17:59;15.20;99.70
6724;DHT22;3399;52.530;13.304;2023-01-01T05:20:25;15.20;99.60
6724;DHT22;3399;52.530;13.304;2023-01-01T05:22:50;15.20;99.70
6724;DHT22;3399;52.530;13.304;2023-01-01T05:25:15;15.10;99.60
6724;DHT22;3399;52.530;13.304;2023-01-01T05:27:41;15.10;99.90
6724;DHT22;3399;52.530;13.304;2023-01-01T05:30:06;15.10;99.70
6724;DHT22;3399;52.530;13.304;2023-01-01T05:32:32;15.20;99.60
6724;DHT22;3399;52.530;13.304;2023-01-01T05:34:57;15.20;99.60
6724;DHT22;3399;52.530;13.304;2023-01-01T05:37:23;15.20;99.60
6724;DHT22;3399;52.530;13.304;2023-01-01T05:39:48;15.20;99.60
6724;DHT22;3399;52.530;13.304;2023-01-01T05:42:13;15.20;99.60
6724;DHT22;3399;52.530;13.304;2023-01-01T05:44:39;15.20;99.60
6724;DHT22;3399;52.530;13.304;2023-01-01T05:47:05;15.30;99.60
6724;DHT22;3399;52.530;13.304;2023-01-01T05:49:30;15.30;99.60
6724;DHT22;3399;52.530;13.304;2023-01-01T05:51:56;15.20;99.70
6724;DHT22;3399;52.530;13.304;2023-01-01T05:54:21;15.20;99.60
6724;DHT22;3399;52.530;13.304;2023-01-01T05:56:47;15.20;99.70
6724;DHT22;3399;52.530;13.304;2023-01-01T05:59:12;15.20;99.90
6724;DHT22;3399;52.530;13.304;2023-01-01T06:01:37;15.10;99.80
6724;DHT22;3399;52.530;13.304;2023-01-01T06:04:03;15.10;99.90
6724;DHT22;3399;52.530;13.304;2023-01-01T06:06:29;15.10;99.90
6724;DHT22;3399;52.530;13.304;2023-01-01T06:08:55;15.10;99.90
6724;DHT22;3399;52.530;13.304;2023-01-01T06:11:21;15.10;99.80
6724;DHT22;3399;52.530;13.304;2023-01-01T06:13:47;15.10;99.90
6724;DHT22;3399;52.530;13.304;2023-01-01T06:16:15;15.10;99.70
6724;DHT22;3399;52.530;13.304;2023-01-01T06:18:40;15.20;99.70
6724;DHT22;3399;52.530;13.304;2023-01-01T06:21:07;15.20;99.70
6724;DHT22;3399;52.530;13.304;2023-01-01T06:23:32;15.20;99.80
6724;DHT22;3399;52.530;13.304;2023-01-01T06:26:05;15.10;99.80
6724;DHT22;3399;52.530;13.304;2023-01-01T06:28:31;15.10;99.70
6724;DHT22;3399;52.530;13.304;2023-01-01T06:31:00;15.20;99.90
6724;DHT22;3399;52.530;13.304;2023-01-01T06:33:25;15.10;99.70
6724;DHT22;3399;52.530;13.304;2023-01-01T06:35:51;15.10;99.90
6724;DHT22;3399;52.530;13.304;2023-01-01T06:38:16;15.10;99.90
6724;DHT22;3399;52.530;13.304;2023-01-01T06:40:42;15.00;99.90
6724;DHT22;3399;52.530;13.304;2023-01-01T06:43:07;15.00;99.90
6724;DHT22;3399;52.530;13.304;2023-01-01T06:45:32;15.00;99.90
6724;DHT22;3399;52.530;13.304;2023-01-01T06:47:58;15.00;99.90
6724;DHT22;3399;52.530;13.304;2023-01-01T06:50:23;15.00;99.90
6724;DHT22;3399;52.530;13.304;2023-01-01T06:52:49;15.00;99.90
6724;DHT22;3399;52.530;13.304;2023-01-01T06:55:14;15.00;99.90
6724;DHT22;3399;52.530;13.304;2023-01-01T06:57:39;15.00;99.90
6724;DHT22;3399;52.530;13.304;2023-01-01T07:00:05;14.90;99.90
6724;DHT22;3399;52.530;13.304;2023-01-01T07:02:30;14.90;99.90
6724;DHT22;3399;52.530;13.304;2023-01-01T07:04:56;14.80;99.90
6724;DHT22;3399;52.530;13.304;2023-01-01T07:07:21;14.90;99.90
6724;DHT22;3399;52.530;13.304;2023-01-01T07:09:47;14.90;99.90
6724;DHT22;3399;52.530;13.304;2023-01-01T07:12:12;14.90;99.90
6724;DHT22;3399;52.530;13.304;2023-01-01T07:14:38;14.90;99.90
6724;DHT22;3399;52.530;13.304;2023-01-01T07:17:03;14.90;99.90
6724;DHT22;3399;52.530;13.304;2023-01-01T07:19:28;14.80;99.90
6724;DHT22;3399;52.530;13.304;2023-01-01T07:21:54;14.80;99.90
6724;DHT22;3399;52.530;13.304;2023-01-01T07:24:20;14.90;99.90
6724;DHT22;3399;52.530;13.304;2023-01-01T07:26:46;14.90;99.90
6724;DHT22;3399;52.530;13.304;2023-01-01T07:29:11;14.90;99.90
6724;DHT22;3399;52.530;13.304;2023-01-01T07:31:37;14.90;99.90
6724;DHT22;3399;52.530;13.304;2023-01-01T07:34:04;14.90;99.90
6724;DHT22;3399;52.530;13.304;2023-01-01T07:36:29;15.00;99.90
6724;DHT22;3399;52.530;13.304;2023-01-01T07:38:55;15.10;99.90
6724;DHT22;3399;52.530;13.304;2023-01-01T07:41:20;15.00;99.90
6724;DHT22;3399;52.530;13.304;2023-01-01T07:43:46;15.00;99.90
6724;DHT22;3399;52.530;13.304;2023-01-01T07:46:12;15.00;99.90
6724;DHT22;3399;52.530;13.304;2023-01-01T07:48:37;15.00;99.90
6724;DHT22;3399;52.530;13.304;2023-01-01T07:51:03;15.00;99.90
6724;DHT22;3399;52.530;13.304;2023-01-01T07:53:28;15.00;99.90
6724;DHT22;3399;52.530;13.304;2023-01-01T07:55:54;15.00;99.90
6724;DHT22;3399;52.530;13.304;2023-01-01T07:58:19;15.00;99.90
6724;DHT22;3399;52.530;13.304;2023-01-01T08:00:45;15.00;99.90
6724;DHT22;3399;52.530;13.304;2023-01-01T08:03:11;15.00;99.90
6724;DHT22;3399;52.530;13.304;2023-01-01T08:05:37;15.00;99.90
6724;DHT22;3399;52.530;13.304;2023-01-01T08:08:02;15.00;99.90
6724;DHT22;3399;52.530;13.304;2023-01-01T08:10:28;15.00;99.90
6724;DHT22;3399;52.530;13.304;2023-01-01T08:12:57;15.10;99.90
6724;DHT22;3399;52.530;13.304;2023-01-01T08:15:23;15.10;99.90
6724;DHT22;3399;52.530;13.304;2023-01-01T08:17:48;15.10;99.90
6724;DHT22;3399;52.530;13.304;2023-01-01T08:20:14;15.10;99.90
6724;DHT22;3399;52.530;13.304;2023-01-01T08:22:39;15.10;99.90
6724;DHT22;3399;52.530;13.304;2023-01-01T08:25:05;15.10;99.90
6724;DHT22;3399;52.530;13.304;2023-01-01T08:27:30;15.10;99.90
6724;DHT22;3399;52.530;13.304;2023-01-01T08:29:55;15.10;99.90
6724;DHT22;3399;52.530;13.304;2023-01-01T08:32:21;15.20;99.90
6724;DHT22;3399;52.530;13.304;2023-01-01T08:34:46;15.20;99.90
6724;DHT22;3399;52.530;13.304;2023-01-01T08:37:12;15.20;99.90
6724;DHT22;3399;52.530;13.304;2023-01-01T08:39:38;15.20;99.90
6724;DHT22;3399;52.530;13.304;2023-01-01T08:42:03;15.20;99.90
6724;DHT22;3399;52.530;13.304;2023-01-01T08:44:28;15.20;99.90
6724;DHT22;3399;52.530;13.304;2023-01-01T08:46:54;15.30;99.90
6724;DHT22;3399;52.530;13.304;2023-01-01T08:49:19;15.30;99.90
6724;DHT22;3399;52.530;13.304;2023-01-01T08:51:45;15.30;99.90
6724;DHT22;3399;52.530;13.304;2023-01-01T08:54:10;15.40;99.90
6724;DHT22;3399;52.530;13.304;2023-01-01T08:56:35;15.40;99.90
6724;DHT22;3399;52.530;13.304;2023-01-01T08:59:01;15.30;99.90
6724;DHT22;3399;52.530;13.304;2023-01-01T09:01:27;15.40;99.90
6724;DHT22;3399;52.530;13.304;2023-01-01T09:03:52;15.30;99.90
6724;DHT22;3399;52.530;13.304;2023-01-01T09:06:18;15.30;99.90
6724;DHT22;3399;52.530;13.304;2023-01-01T09:08:43;15.30;99.90
6724;DHT22;3399;52.530;13.304;2023-01-01T09:11:24;15.40;99.90
6724;DHT22;3399;52.530;13.304;2023-01-01T09:13:50;15.40;99.90
6724;DHT22;3399;52.530;13.304;2023-01-01T09:16:16;15.40;99.90
6724;DHT22;3399;52.530;13.304;2023-01-01T09:18:42;15.40;99.90
6724;DHT22;3399;52.530;13.304;2023-01-01T09:21:07;15.40;99.90
6724;DHT22;3399;52.530;13.304;2023-01-01T09:23:33;15.40;99.90
6724;DHT22;3399;52.530;13.304;2023-01-01T09:26:02;15.50;99.90
6724;DHT22;3399;52.530;13.304;2023-01-01T09:28:27;15.50;99.90
6724;DHT22;3399;52.530;13.304;2023-01-01T09:30:53;15.60;99.90
6724;DHT22;3399;52.530;13.304;2023-01-01T09:33:19;15.60;99.90
6724;DHT22;3399;52.530;13.304;2023-01-01T09:35:44;15.60;99.90
6724;DHT22;3399;52.530;13.304;2023-01-01T09:38:10;15.60;99.90
6724;DHT22;3399;52.530;13.304;2023-01-01T09:43:22;15.80;99.90
6724;DHT22;3399;52.530;13.304;2023-01-01T09:46:06;15.90;99.90
6724;DHT22;3399;52.530;13.304;2023-01-01T09:48:32;16.00;99.90
6724;DHT22;3399;52.530;13.304;2023-01-01T09:51:00;16.00;99.90
6724;DHT22;3399;52.530;13.304;2023-01-01T09:53:30;16.00;99.80
6724;DHT22;3399;52.530;13.304;2023-01-01T09:55:58;16.00;99.90
6724;DHT22;3399;52.530;13.304;2023-01-01T09:58:24;16.00;99.90
6724;DHT22;3399;52.530;13.304;2023-01-01T10:00:55;16.00;99.90
6724;DHT22;3399;52.530;13.304;2023-01-01T10:03:39;16.00;99.90
6724;DHT22;3399;52.530;13.304;2023-01-01T10:06:12;16.00;99.90
6724;DHT22;3399;52.530;13.304;2023-01-01T10:08:44;16.00;99.90
6724;DHT22;3399;52.530;13.304;2023-01-01T10:11:19;16.00;99.90
6724;DHT22;3399;52.530;13.304;2023-01-01T10:13:47;16.00;99.90
6724;DHT22;3399;52.530;13.304;2023-01-01T10:16:23;16.10;99.90
6724;DHT22;3399;52.530;13.304;2023-01-01T10:18:54;16.10;99.90
6724;DHT22;3399;52.530;13.304;2023-01-01T10:21:22;16.00;99.90
6724;DHT22;3399;52.530;13.304;2023-01-01T10:23:53;16.00;99.80
6724;DHT22;3399;52.530;13.304;2023-01-01T10:26:20;16.00;99.90
6724;DHT22;3399;52.530;13.304;2023-01-01T10:31:35;16.00;99.90
6724;DHT22;3399;52.530;13.304;2023-01-01T10:34:19;16.00;99.90
6724;DHT22;3399;52.530;13.304;2023-01-01T10:36:46;16.10;99.90
6724;DHT22;3399;52.530;13.304;2023-01-01T10:39:12;16.20;99.90
6724;DHT22;3399;52.530;13.304;2023-01-01T10:41:38;16.00;99.90
6724;DHT22;3399;52.530;13.304;2023-01-01T10:44:07;16.00;99.90
6724;DHT22;3399;52.530;13.304;2023-01-01T10:46:33;16.00;99.90
6724;DHT22;3399;52.530;13.304;2023-01-01T10:49:17;15.90;99.90
6724;DHT22;3399;52.530;13.304;2023-01-01T10:51:43;16.00;99.90
6724;DHT22;3399;52.530;13.304;2023-01-01T10:54:29;16.00;99.90
6724;DHT22;3399;52.530;13.304;2023-01-01T10:56:56;16.00;99.90
6724;DHT22;3399;52.530;13.304;2023-01-01T10:59:31;16.00;99.90
6724;DHT22;3399;52.530;13.304;2023-01-01T11:05:11;16.00;99.90
6724;DHT22;3399;52.530;13.304;2023-01-01T11:07:37;16.00;99.90
6724;DHT22;3399;52.530;13.304;2023-01-01T11:10:05;16.00;99.90
6724;DHT22;3399;52.530;13.304;2023-01-01T11:12:34;16.10;99.90
6724;DHT22;3399;52.530;13.304;2023-01-01T11:15:00;16.10;99.90
6724;DHT22;3399;52.530;13.304;2023-01-01T11:17:26;16.00;99.90
6724;DHT22;3399;52.530;13.304;2023-01-01T11:19:53;16.00;99.90
6724;DHT22;3399;52.530;13.304;2023-01-01T11:25:03;16.00;99.90
6724;DHT22;3399;52.530;13.304;2023-01-01T11:27:39;16.00;99.90
6724;DHT22;3399;52.530;13.304;2023-01-01T11:32:49;15.90;99.90
6724;DHT22;3399;52.530;13.304;2023-01-01T11:35:19;16.00;99.90
6724;DHT22;3399;52.530;13.304;2023-01-01T11:37:45;16.00;99.90
6724;DHT22;3399;52.530;13.304;2023-01-01T11:41:12;16.00;99.90
6724;DHT22;3399;52.530;13.304;2023-01-01T11:43:06;16.20;99.90
6724;DHT22;3399;52.530;13.304;2023-01-01T11:45:33;16.30;99.90
6724;DHT22;3399;52.530;13.304;2023-01-01T11:48:02;16.30;99.90
6724;DHT22;3399;52.530;13.304;2023-01-01T11:50:35;16.30;99.90
6724;DHT22;3399;52.530;13.304;2023-01-01T11:56:01;16.20;99.90
6724;DHT22;3399;52.530;13.304;2023-01-01T12:03:57;16.10;99.90
6724;DHT22;3399;52.530;13.304;2023-01-01T12:06:25;16.10;99.90
6724;DHT22;3399;52.530;13.304;2023-01-01T12:11:59;16.10;99.90
6724;DHT22;3399;52.530;13.304;2023-01-01T12:17:17;16.10;99.90
6724;DHT22;3399;52.530;13.304;2023-01-01T12:19:47;16.20;99.90
6724;DHT22;3399;52.530;13.304;2023-01-01T12:22:17;16.20;99.90
6724;DHT22;3399;52.530;13.304;2023-01-01T12:24:43;16.30;99.90
6724;DHT22;3399;52.530;13.304;2023-01-01T12:29:41;16.30;99.90
6724;DHT22;3399;52.530;13.304;2023-01-01T12:32:23;16.20;99.90
6724;DHT22;3399;52.530;13.304;2023-01-01T12:34:57;16.30;99.90
6724;DHT22;3399;52.530;13.304;2023-01-01T12:43:01;16.20;99.90
6724;DHT22;3399;52.530;13.304;2023-01-01T12:45:44;16.10;99.90
6724;DHT22;3399;52.530;13.304;2023-01-01T12:48:26;16.20;99.90
6724;DHT22;3399;52.530;13.304;2023-01-01T12:50:56;16.10;99.90
6724;DHT22;3399;52.530;13.304;2023-01-01T12:53:39;16.00;99.90
6724;DHT22;3399;52.530;13.304;2023-01-01T12:56:12;16.00;99.90
6724;DHT22;3399;52.530;13.304;2023-01-01T12:58:39;15.90;99.90
6724;DHT22;3399;52.530;13.304;2023-01-01T13:01:07;15.90;99.90
6724;DHT22;3399;52.530;13.304;2023-01-01T13:03:55;15.90;99.90
6724;DHT22;3399;52.530;13.304;2023-01-01T13:06:24;15.90;99.90
6724;DHT22;3399;52.530;13.304;2023-01-01T13:08:54;15.80;99.90
6724;DHT22;3399;52.530;13.304;2023-01-01T13:11:21;15.90;99.90
6724;DHT22;3399;52.530;13.304;2023-01-01T13:13:48;15.90;99.90
6724;DHT22;3399;52.530;13.304;2023-01-01T13:16:17;15.90;99.90
6724;DHT22;3399;52.530;13.304;2023-01-01T13:18:56;15.90;99.90
6724;DHT22;3399;52.530;13.304;2023-01-01T13:21:21;15.90;99.90
6724;DHT22;3399;52.530;13.304;2023-01-01T13:23:48;15.90;99.90
6724;DHT22;3399;52.530;13.304;2023-01-01T13:31:16;15.90;99.90
6724;DHT22;3399;52.530;13.304;2023-01-01T13:33:41;15.90;99.90
6724;DHT22;3399;52.530;13.304;2023-01-01T13:38:49;15.80;99.90
6724;DHT22;3399;52.530;13.304;2023-01-01T13:46:25;15.70;99.90
6724;DHT22;3399;52.530;13.304;2023-01-01T13:49:02;15.80;99.90
6724;DHT22;3399;52.530;13.304;2023-01-01T13:51:44;15.70;99.90
6724;DHT22;3399;52.530;13.304;2023-01-01T13:56:56;15.60;99.90
6724;DHT22;3399;52.530;13.304;2023-01-01T13:59:30;15.60;99.90
6724;DHT22;3399;52.530;13.304;2023-01-01T14:04:50;15.60;99.90
6724;DHT22;3399;52.530;13.304;2023-01-01T14:09:43;15.50;99.90
6724;DHT22;3399;52.530;13.304;2023-01-01T14:12:09;15.50;99.90
6724;DHT22;3399;52.530;13.304;2023-01-01T14:14:34;15.50;99.90
6724;DHT22;3399;52.530;13.304;2023-01-01T14:17:01;15.40;99.90
6724;DHT22;3399;52.530;13.304;2023-01-01T14:19:29;15.40;99.90
6724;DHT22;3399;52.530;13.304;2023-01-01T14:21:56;15.30;99.90
6724;DHT22;3399;52.530;13.304;2023-01-01T14:24:21;15.30;99.90
6724;DHT22;3399;52.530;13.304;2023-01-01T14:26:47;15.30;99.90
6724;DHT22;3399;52.530;13.304;2023-01-01T14:29:24;15.20;99.90
6724;DHT22;3399;52.530;13.304;2023-01-01T14:31:50;15.20;99.90
6724;DHT22;3399;52.530;13.304;2023-01-01T14:34:23;15.20;99.90
6724;DHT22;3399;52.530;13.304;2023-01-01T14:36:52;15.20;99.90
6724;DHT22;3399;52.530;13.304;2023-01-01T14:39:21;15.10;99.90
6724;DHT22;3399;52.530;13.304;2023-01-01T14:41:47;15.10;99.90
6724;DHT22;3399;52.530;13.304;2023-01-01T14:44:13;15.10;99.90
6724;DHT22;3399;52.530;13.304;2023-01-01T14:46:43;15.00;99.90
6724;DHT22;3399;52.530;13.304;2023-01-01T14:49:10;15.00;99.90
6724;DHT22;3399;52.530;13.304;2023-01-01T14:51:36;15.00;99.90
6724;DHT22;3399;52.530;13.304;2023-01-01T14:54:05;15.00;99.90
6724;DHT22;3399;52.530;13.304;2023-01-01T14:56:31;14.90;99.90
6724;DHT22;3399;52.530;13.304;2023-01-01T14:59:03;14.90;99.90
6724;DHT22;3399;52.530;13.304;2023-01-01T15:01:29;14.80;99.90
6724;DHT22;3399;52.530;13.304;2023-01-01T15:04:02;14.80;99.90
6724;DHT22;3399;52.530;13.304;2023-01-01T15:06:28;14.70;99.90
6724;DHT22;3399;52.530;13.304;2023-01-01T15:08:54;14.60;99.90
6724;DHT22;3399;52.530;13.304;2023-01-01T15:11:19;14.60;99.90
6724;DHT22;3399;52.530;13.304;2023-01-01T15:14:00;14.50;99.90
6724;DHT22;3399;52.530;13.304;2023-01-01T15:16:26;14.50;99.90
6724;DHT22;3399;52.530;13.304;2023-01-01T15:18:52;14.50;99.90
6724;DHT22;3399;52.530;13.304;2023-01-01T15:21:51;14.40;99.90
6724;DHT22;3399;52.530;13.304;2023-01-01T15:24:11;14.40;99.90
6724;DHT22;3399;52.530;13.304;2023-01-01T15:26:41;14.40;99.90
6724;DHT22;3399;52.530;13.304;2023-01-01T15:29:08;14.40;99.90
6724;DHT22;3399;52.530;13.304;2023-01-01T15:31:35;14.40;99.90
6724;DHT22;3399;52.530;13.304;2023-01-01T15:34:01;14.40;99.90
6724;DHT22;3399;52.530;13.304;2023-01-01T15:36:27;14.40;99.90
6724;DHT22;3399;52.530;13.304;2023-01-01T15:38:52;14.40;99.90
6724;DHT22;3399;52.530;13.304;2023-01-01T15:41:32;14.40;99.90
6724;DHT22;3399;52.530;13.304;2023-01-01T15:44:05;14.30;99.90
6724;DHT22;3399;52.530;13.304;2023-01-01T15:46:31;14.30;99.90
6724;DHT22;3399;52.530;13.304;2023-01-01T15:48:58;14.20;99.90
6724;DHT22;3399;52.530;13.304;2023-01-01T15:51:23;14.10;99.90
6724;DHT22;3399;52.530;13.304;2023-01-01T15:53:59;14.10;99.90
6724;DHT22;3399;52.530;13.304;2023-01-01T15:56:26;14.00;99.90
6724;DHT22;3399;52.530;13.304;2023-01-01T15:58:54;13.80;99.90
6724;DHT22;3399;52.530;13.304;2023-01-01T16:01:30;13.80;99.90
6724;DHT22;3399;52.530;13.304;2023-01-01T16:04:06;13.70;99.90
6724;DHT22;3399;52.530;13.304;2023-01-01T16:06:32;13.60;99.90
6724;DHT22;3399;52.530;13.304;2023-01-01T16:08:58;13.50;99.90
6724;DHT22;3399;52.530;13.304;2023-01-01T16:11:23;13.40;99.90
6724;DHT22;3399;52.530;13.304;2023-01-01T16:13:49;13.30;99.90
6724;DHT22;3399;52.530;13.304;2023-01-01T16:16:25;13.20;99.90
6724;DHT22;3399;52.530;13.304;2023-01-01T16:18:51;13.20;99.90
6724;DHT22;3399;52.530;13.304;2023-01-01T16:21:18;13.10;99.90
6724;DHT22;3399;52.530;13.304;2023-01-01T16:23:43;13.10;99.90
6724;DHT22;3399;52.530;13.304;2023-01-01T16:26:08;13.00;99.90
6724;DHT22;3399;52.530;13.304;2023-01-01T16:28:34;13.00;99.90
6724;DHT22;3399;52.530;13.304;2023-01-01T16:30:59;13.00;99.90
6724;DHT22;3399;52.530;13.304;2023-01-01T16:33:25;12.90;99.90
6724;DHT22;3399;52.530;13.304;2023-01-01T16:35:50;12.90;99.90
6724;DHT22;3399;52.530;13.304;2023-01-01T16:38:16;12.80;99.90
6724;DHT22;3399;52.530;13.304;2023-01-01T16:40:41;12.80;99.90
6724;DHT22;3399;52.530;13.304;2023-01-01T16:43:08;12.80;99.90
6724;DHT22;3399;52.530;13.304;2023-01-01T16:45:38;12.70;99.90
6724;DHT22;3399;52.530;13.304;2023-01-01T16:48:03;12.70;99.90
6724;DHT22;3399;52.530;13.304;2023-01-01T16:50:29;12.70;99.90
6724;DHT22;3399;52.530;13.304;2023-01-01T16:52:54;12.70;99.90
6724;DHT22;3399;52.530;13.304;2023-01-01T16:55:20;12.60;99.90
6724;DHT22;3399;52.530;13.304;2023-01-01T16:57:46;12.60;99.90
6724;DHT22;3399;52.530;13.304;2023-01-01T17:00:12;12.70;99.90
6724;DHT22;3399;52.530;13.304;2023-01-01T17:02:37;12.70;99.90
6724;DHT22;3399;52.530;13.304;2023-01-01T17:05:03;12.60;99.90
6724;DHT22;3399;52.530;13.304;2023-01-01T17:07:28;12.70;99.90
6724;DHT22;3399;52.530;13.304;2023-01-01T17:09:54;12.80;99.90
6724;DHT22;3399;52.530;13.304;2023-01-01T17:12:19;12.70;99.90
6724;DHT22;3399;52.530;13.304;2023-01-01T17:14:44;12.70;99.90